sensor_id;sensor_type;location;lat;lon;timestamp;temperature;humidity
34815;DHT22;21030;53.912;15.214;2022-07-19T00:00:41;40.50;27.80
34815;DHT22;21030;53.912;15.214;2022-07-19T00:03:14;40.30;27.70
34815;DHT22;21030;53.912;15.214;2022-07-19T00:05:41;40.40;27.80
34815;DHT22;21030;53.912;15.214;2022-07-19T00:08:08;40.40;27.70
34815;DHT22;21030;53.912;15.214;2022-07-19T00:10:35;40.20;27.80
34815;DHT22;21030;53.912;15.214;2022-07-19T00:13:02;40.20;27.80
34815;DHT22;21030;53.912;15.214;2022-07-19T00:15:30;40.20;27.70
34815;DHT22;21030;53.912;15.214;2022-07-19T00:17:58;40.20;27.80
34815;DHT22;21030;53.912;15.214;2022-07-19T00:20:25;40.20;27.70
34815;DHT22;21030;53.912;15.214;2022-07-19T00:22:52;40.00;27.70
34815;DHT22;21030;53.912;15.214;2022-07-19T00:25:19;39.70;27.90
34815;DHT22;21030;53.912;15.214;2022-07-19T00:27:46;39.40;28.10
34815;DHT22;21030;53.912;15.214;2022-07-19T00:30:13;39.10;28.50
34815;DHT22;21030;53.912;15.214;2022-07-19T00:32:40;38.50;28.70
34815;DHT22;21030;53.912;15.214;2022-07-19T00:35:07;37.60;29.40
34815;DHT22;21030;53.912;15.214;2022-07-19T00:37:35;37.30;29.90
34815;DHT22;21030;53.912;15.214;2022-07-19T00:40:02;37.20;29.80
34815;DHT22;21030;53.912;15.214;2022-07-19T00:42:29;37.40;29.90
34815;DHT22;21030;53.912;15.214;2022-07-19T00:44:56;37.80;29.80
34815;DHT22;21030;53.912;15.214;2022-07-19T00:47:24;38.10;29.50
34815;DHT22;21030;53.912;15.214;2022-07-19T00:49:51;38.20;29.30
34815;DHT22;21030;53.912;15.214;2022-07-19T00:52:20;38.20;29.10
34815;DHT22;21030;53.912;15.214;2022-07-19T00:54:49;38.60;28.90
34815;DHT22;21030;53.912;15.214;2022-07-19T00:57:19;39.00;28.60
34815;DHT22;21030;53.912;15.214;2022-07-19T00:59:47;39.30;28.10
34815;DHT22;21030;53.912;15.214;2022-07-19T01:02:18;39.40;28.00
34815;DHT22;21030;53.912;15.214;2022-07-19T01:04:45;39.60;27.80
34815;DHT22;21030;53.912;15.214;2022-07-19T01:07:16;39.70;27.50
34815;DHT22;21030;53.912;15.214;2022-07-19T01:09:43;39.90;27.50
34815;DHT22;21030;53.912;15.214;2022-07-19T01:12:12;40.00;27.30
34815;DHT22;21030;53.912;15.214;2022-07-19T01:14:39;40.00;27.20
34815;DHT22;21030;53.912;15.214;2022-07-19T01:17:06;39.80;27.30
34815;DHT22;21030;53.912;15.214;2022-07-19T01:19:34;39.60;27.50
34815;DHT22;21030;53.912;15.214;2022-07-19T01:22:01;39.50;27.50
34815;DHT22;21030;53.912;15.214;2022-07-19T01:24:28;39.40;27.70
34815;DHT22;21030;53.912;15.214;2022-07-19T01:26:55;39.10;27.80
34815;DHT22;21030;53.912;15.214;2022-07-19T01:29:22;39.00;28.00
34815;DHT22;21030;53.912;15.214;2022-07-19T01:31:49;38.90;27.80
34815;DHT22;21030;53.912;15.214;2022-07-19T01:34:16;39.00;27.90
34815;DHT22;21030;53.912;15.214;2022-07-19T01:36:43;39.10;27.90
34815;DHT22;21030;53.912;15.214;2022-07-19T01:39:10;39.00;27.80
34815;DHT22;21030;53.912;15.214;2022-07-19T01:41:37;39.20;27.80
34815;DHT22;21030;53.912;15.214;2022-07-19T01:44:05;39.60;27.60
34815;DHT22;21030;53.912;15.214;2022-07-19T01:46:32;39.60;27.30
34815;DHT22;21030;53.912;15.214;2022-07-19T01:48:59;39.50;27.40
34815;DHT22;21030;53.912;15.214;2022-07-19T01:51:26;39.40;27.50
34815;DHT22;21030;53.912;15.214;2022-07-19T01:53:53;39.60;27.40
34815;DHT22;21030;53.912;15.214;2022-07-19T01:56:20;39.50;27.30
34815;DHT22;21030;53.912;15.214;2022-07-19T01:58:47;39.60;27.40
34815;DHT22;21030;53.912;15.214;2022-07-19T02:01:14;39.50;27.30
34815;DHT22;21030;53.912;15.214;2022-07-19T02:03:41;39.60;27.30
34815;DHT22;21030;53.912;15.214;2022-07-19T02:06:08;39.60;27.30
34815;DHT22;21030;53.912;15.214;2022-07-19T02:08:36;39.80;27.30
34815;DHT22;21030;53.912;15.214;2022-07-19T02:11:03;39.70;27.80
34815;DHT22;21030;53.912;15.214;2022-07-19T02:13:51;39.80;27.10
34815;DHT22;21030;53.912;15.214;2022-07-19T02:16:18;39.60;27.30
34815;DHT22;21030;53.912;15.214;2022-07-19T02:18:45;39.40;27.40
34815;DHT22;21030;53.912;15.214;2022-07-19T02:21:12;39.40;27.40
34815;DHT22;21030;53.912;15.214;2022-07-19T02:23:39;39.40;27.40
34815;DHT22;21030;53.912;15.214;2022-07-19T02:26:06;39.30;27.50
34815;DHT22;21030;53.912;15.214;2022-07-19T02:28:33;39.20;27.50
34815;DHT22;21030;53.912;15.214;2022-07-19T02:31:00;39.30;27.50
34815;DHT22;21030;53.912;15.214;2022-07-19T02:33:27;39.20;27.60
34815;DHT22;21030;53.912;15.214;2022-07-19T02:35:54;39.10;27.60
34815;DHT22;21030;53.912;15.214;2022-07-19T02:38:22;39.10;27.50
34815;DHT22;21030;53.912;15.214;2022-07-19T02:40:49;39.00;27.60
34815;DHT22;21030;53.912;15.214;2022-07-19T02:43:16;38.80;27.70
34815;DHT22;21030;53.912;15.214;2022-07-19T02:45:43;38.50;27.90
34815;DHT22;21030;53.912;15.214;2022-07-19T02:48:10;38.40;28.10
34815;DHT22;21030;53.912;15.214;2022-07-19T02:50:37;38.50;28.00
34815;DHT22;21030;53.912;15.214;2022-07-19T02:53:04;38.30;28.00
34815;DHT22;21030;53.912;15.214;2022-07-19T02:55:31;38.30;27.90
34815;DHT22;21030;53.912;15.214;2022-07-19T02:57:59;38.30;27.90
34815;DHT22;21030;53.912;15.214;2022-07-19T03:00:27;38.40;27.90
34815;DHT22;21030;53.912;15.214;2022-07-19T03:02:54;38.70;27.90
34815;DHT22;21030;53.912;15.214;2022-07-19T03:05:21;38.90;27.60
34815;DHT22;21030;53.912;15.214;2022-07-19T03:07:48;39.30;27.40
34815;DHT22;21030;53.912;15.214;2022-07-19T03:10:15;39.50;27.20
34815;DHT22;21030;53.912;15.214;2022-07-19T03:12:42;39.60;27.00
34815;DHT22;21030;53.912;15.214;2022-07-19T03:15:10;39.70;27.00
34815;DHT22;21030;53.912;15.214;2022-07-19T03:17:37;39.70;27.00
34815;DHT22;21030;53.912;15.214;2022-07-19T03:20:04;39.70;26.90
34815;DHT22;21030;53.912;15.214;2022-07-19T03:22:31;39.40;26.90
34815;DHT22;21030;53.912;15.214;2022-07-19T03:24:58;39.00;27.10
34815;DHT22;21030;53.912;15.214;2022-07-19T03:27:25;38.10;27.80
34815;DHT22;21030;53.912;15.214;2022-07-19T03:29:52;37.70;28.50
34815;DHT22;21030;53.912;15.214;2022-07-19T03:32:19;37.80;28.30
34815;DHT22;21030;53.912;15.214;2022-07-19T03:34:46;37.40;28.40
34815;DHT22;21030;53.912;15.214;2022-07-19T03:37:14;37.30;28.70
34815;DHT22;21030;53.912;15.214;2022-07-19T03:39:41;37.20;28.90
34815;DHT22;21030;53.912;15.214;2022-07-19T03:42:08;37.20;28.80
34815;DHT22;21030;53.912;15.214;2022-07-19T03:44:35;37.10;28.90
34815;DHT22;21030;53.912;15.214;2022-07-19T03:47:02;37.20;29.00
34815;DHT22;21030;53.912;15.214;2022-07-19T03:49:29;36.80;29.10
34815;DHT22;21030;53.912;15.214;2022-07-19T03:51:56;36.60;29.60
34815;DHT22;21030;53.912;15.214;2022-07-19T03:54:23;36.60;29.40
34815;DHT22;21030;53.912;15.214;2022-07-19T03:56:50;37.20;29.00
34815;DHT22;21030;53.912;15.214;2022-07-19T03:59:17;37.00;28.80
34815;DHT22;21030;53.912;15.214;2022-07-19T04:01:45;37.20;28.70
34815;DHT22;21030;53.912;15.214;2022-07-19T04:04:12;38.00;28.60
34815;DHT22;21030;53.912;15.214;2022-07-19T04:06:39;38.40;28.20
34815;DHT22;21030;53.912;15.214;2022-07-19T04:09:06;38.70;27.90
34815;DHT22;21030;53.912;15.214;2022-07-19T04:11:33;39.00;27.60
34815;DHT22;21030;53.912;15.214;2022-07-19T04:14:00;39.30;27.30
34815;DHT22;21030;53.912;15.214;2022-07-19T04:16:27;39.50;27.10
34815;DHT22;21030;53.912;15.214;2022-07-19T04:18:54;39.80;27.00
34815;DHT22;21030;53.912;15.214;2022-07-19T04:21:21;39.90;26.80
34815;DHT22;21030;53.912;15.214;2022-07-19T04:23:48;39.80;26.80
34815;DHT22;21030;53.912;15.214;2022-07-19T04:26:15;39.80;26.90
34815;DHT22;21030;53.912;15.214;2022-07-19T04:28:42;39.80;26.90
34815;DHT22;21030;53.912;15.214;2022-07-19T04:31:09;39.90;26.80
34815;DHT22;21030;53.912;15.214;2022-07-19T04:33:36;40.00;26.70
34815;DHT22;21030;53.912;15.214;2022-07-19T04:36:04;40.20;26.60
34815;DHT22;21030;53.912;15.214;2022-07-19T04:38:31;39.80;26.70
34815;DHT22;21030;53.912;15.214;2022-07-19T04:40:58;39.50;26.90
34815;DHT22;21030;53.912;15.214;2022-07-19T04:43:26;38.60;27.30
34815;DHT22;21030;53.912;15.214;2022-07-19T04:45:53;38.40;27.90
34815;DHT22;21030;53.912;15.214;2022-07-19T04:48:20;38.30;28.00
34815;DHT22;21030;53.912;15.214;2022-07-19T04:50:47;38.50;28.00
34815;DHT22;21030;53.912;15.214;2022-07-19T04:53:14;39.10;27.80
34815;DHT22;21030;53.912;15.214;2022-07-19T04:55:41;39.20;27.70
34815;DHT22;21030;53.912;15.214;2022-07-19T04:58:08;39.00;27.80
34815;DHT22;21030;53.912;15.214;2022-07-19T05:00:35;39.00;27.80
34815;DHT22;21030;53.912;15.214;2022-07-19T05:03:03;39.20;27.90
34815;DHT22;21030;53.912;15.214;2022-07-19T05:05:32;39.30;27.80
34815;DHT22;21030;53.912;15.214;2022-07-19T05:08:00;39.60;27.80
34815;DHT22;21030;53.912;15.214;2022-07-19T05:10:27;39.80;27.60
34815;DHT22;21030;53.912;15.214;2022-07-19T05:12:54;39.60;27.70
34815;DHT22;21030;53.912;15.214;2022-07-19T05:15:21;39.70;27.90
34815;DHT22;21030;53.912;15.214;2022-07-19T05:17:48;39.70;28.10
34815;DHT22;21030;53.912;15.214;2022-07-19T05:20:15;39.80;28.10
34815;DHT22;21030;53.912;15.214;2022-07-19T05:22:44;40.20;28.20
34815;DHT22;21030;53.912;15.214;2022-07-19T05:25:14;40.00;28.10
34815;DHT22;21030;53.912;15.214;2022-07-19T05:27:42;40.30;28.20
34815;DHT22;21030;53.912;15.214;2022-07-19T05:30:11;40.50;27.80
34815;DHT22;21030;53.912;15.214;2022-07-19T05:32:39;40.10;27.50
34815;DHT22;21030;53.912;15.214;2022-07-19T05:35:06;40.20;27.90
34815;DHT22;21030;53.912;15.214;2022-07-19T05:37:33;40.00;27.80
34815;DHT22;21030;53.912;15.214;2022-07-19T05:40:00;40.00;28.10
34815;DHT22;21030;53.912;15.214;2022-07-19T05:42:27;40.00;28.00
34815;DHT22;21030;53.912;15.214;2022-07-19T05:44:54;40.30;28.00
34815;DHT22;21030;53.912;15.214;2022-07-19T05:47:22;40.40;28.20
34815;DHT22;21030;53.912;15.214;2022-07-19T05:49:49;40.50;28.10
34815;DHT22;21030;53.912;15.214;2022-07-19T05:52:16;40.60;28.20
34815;DHT22;21030;53.912;15.214;2022-07-19T05:54:43;40.50;27.60
34815;DHT22;21030;53.912;15.214;2022-07-19T05:57:10;40.50;27.80
34815;DHT22;21030;53.912;15.214;2022-07-19T05:59:37;40.80;27.40
34815;DHT22;21030;53.912;15.214;2022-07-19T06:02:04;41.20;27.10
34815;DHT22;21030;53.912;15.214;2022-07-19T06:04:31;41.30;27.10
34815;DHT22;21030;53.912;15.214;2022-07-19T06:06:58;41.70;27.00
34815;DHT22;21030;53.912;15.214;2022-07-19T06:09:25;41.50;26.60
34815;DHT22;21030;53.912;15.214;2022-07-19T06:11:52;41.70;26.70
34815;DHT22;21030;53.912;15.214;2022-07-19T06:14:20;41.70;26.50
34815;DHT22;21030;53.912;15.214;2022-07-19T06:16:47;41.60;26.60
34815;DHT22;21030;53.912;15.214;2022-07-19T06:19:15;42.10;26.30
34815;DHT22;21030;53.912;15.214;2022-07-19T06:21:42;42.30;26.00
34815;DHT22;21030;53.912;15.214;2022-07-19T06:24:09;42.30;26.10
34815;DHT22;21030;53.912;15.214;2022-07-19T06:26:36;42.10;26.10
34815;DHT22;21030;53.912;15.214;2022-07-19T06:29:03;42.70;26.20
34815;DHT22;21030;53.912;15.214;2022-07-19T06:31:31;42.90;25.90
34815;DHT22;21030;53.912;15.214;2022-07-19T06:33:58;43.10;26.00
34815;DHT22;21030;53.912;15.214;2022-07-19T06:36:25;42.80;25.10
34815;DHT22;21030;53.912;15.214;2022-07-19T06:38:53;42.60;25.20
34815;DHT22;21030;53.912;15.214;2022-07-19T06:41:20;43.00;25.60
34815;DHT22;21030;53.912;15.214;2022-07-19T06:43:55;43.60;24.10
34815;DHT22;21030;53.912;15.214;2022-07-19T06:46:22;44.30;23.80
34815;DHT22;21030;53.912;15.214;2022-07-19T06:48:49;44.20;23.30
34815;DHT22;21030;53.912;15.214;2022-07-19T06:51:16;44.20;23.10
34815;DHT22;21030;53.912;15.214;2022-07-19T06:53:43;44.10;23.30
34815;DHT22;21030;53.912;15.214;2022-07-19T06:56:10;44.40;23.40
34815;DHT22;21030;53.912;15.214;2022-07-19T06:58:37;44.50;23.70
34815;DHT22;21030;53.912;15.214;2022-07-19T07:01:08;44.90;23.70
34815;DHT22;21030;53.912;15.214;2022-07-19T07:03:37;44.60;23.00
34815;DHT22;21030;53.912;15.214;2022-07-19T07:06:04;45.30;23.30
34815;DHT22;21030;53.912;15.214;2022-07-19T07:08:31;46.10;22.80
34815;DHT22;21030;53.912;15.214;2022-07-19T07:10:58;46.20;22.70
34815;DHT22;21030;53.912;15.214;2022-07-19T07:13:26;46.30;21.70
34815;DHT22;21030;53.912;15.214;2022-07-19T07:15:53;47.10;21.60
34815;DHT22;21030;53.912;15.214;2022-07-19T07:18:20;47.10;21.30
34815;DHT22;21030;53.912;15.214;2022-07-19T07:20:47;47.20;21.40
34815;DHT22;21030;53.912;15.214;2022-07-19T07:23:14;47.40;20.80
34815;DHT22;21030;53.912;15.214;2022-07-19T07:25:41;48.00;21.00
34815;DHT22;21030;53.912;15.214;2022-07-19T07:28:08;47.90;20.40
34815;DHT22;21030;53.912;15.214;2022-07-19T07:30:35;48.40;20.50
34815;DHT22;21030;53.912;15.214;2022-07-19T07:33:02;48.20;20.40
34815;DHT22;21030;53.912;15.214;2022-07-19T07:35:29;48.80;20.40
34815;DHT22;21030;53.912;15.214;2022-07-19T07:37:56;49.00;19.80
34815;DHT22;21030;53.912;15.214;2022-07-19T07:40:24;49.40;19.70
34815;DHT22;21030;53.912;15.214;2022-07-19T07:42:51;49.10;19.40
34815;DHT22;21030;53.912;15.214;2022-07-19T07:45:18;49.30;19.40
34815;DHT22;21030;53.912;15.214;2022-07-19T07:47:45;50.00;19.30
34815;DHT22;21030;53.912;15.214;2022-07-19T07:50:12;50.40;19.00
34815;DHT22;21030;53.912;15.214;2022-07-19T07:52:39;50.70;18.80
34815;DHT22;21030;53.912;15.214;2022-07-19T07:55:06;50.90;18.80
34815;DHT22;21030;53.912;15.214;2022-07-19T07:57:53;50.80;18.60
34815;DHT22;21030;53.912;15.214;2022-07-19T08:00:21;50.90;18.60
34815;DHT22;21030;53.912;15.214;2022-07-19T08:02:49;50.60;18.90
34815;DHT22;21030;53.912;15.214;2022-07-19T08:05:20;50.90;19.60
34815;DHT22;21030;53.912;15.214;2022-07-19T08:07:49;51.40;18.90
34815;DHT22;21030;53.912;15.214;2022-07-19T08:10:18;51.70;18.80
34815;DHT22;21030;53.912;15.214;2022-07-19T08:12:46;51.70;18.50
34815;DHT22;21030;53.912;15.214;2022-07-19T08:15:13;52.10;18.10
34815;DHT22;21030;53.912;15.214;2022-07-19T08:17:40;51.90;18.10
34815;DHT22;21030;53.912;15.214;2022-07-19T08:20:09;51.40;18.10
34815;DHT22;21030;53.912;15.214;2022-07-19T08:22:36;51.10;18.60
34815;DHT22;21030;53.912;15.214;2022-07-19T08:25:03;51.50;18.20
34815;DHT22;21030;53.912;15.214;2022-07-19T08:27:31;51.90;18.20
34815;DHT22;21030;53.912;15.214;2022-07-19T08:29:58;52.20;18.60
34815;DHT22;21030;53.912;15.214;2022-07-19T08:32:34;51.50;17.30
34815;DHT22;21030;53.912;15.214;2022-07-19T08:35:01;51.30;17.80
34815;DHT22;21030;53.912;15.214;2022-07-19T08:37:28;51.50;17.80
34815;DHT22;21030;53.912;15.214;2022-07-19T08:39:55;51.90;17.90
34815;DHT22;21030;53.912;15.214;2022-07-19T08:42:22;52.10;18.10
34815;DHT22;21030;53.912;15.214;2022-07-19T08:44:54;51.50;17.50
34815;DHT22;21030;53.912;15.214;2022-07-19T08:47:21;51.80;18.00
34815;DHT22;21030;53.912;15.214;2022-07-19T08:49:48;52.00;17.60
34815;DHT22;21030;53.912;15.214;2022-07-19T08:52:16;52.20;17.70
34815;DHT22;21030;53.912;15.214;2022-07-19T08:54:45;52.50;17.80
34815;DHT22;21030;53.912;15.214;2022-07-19T08:57:12;52.30;17.50
34815;DHT22;21030;53.912;15.214;2022-07-19T08:59:57;52.90;17.80
34815;DHT22;21030;53.912;15.214;2022-07-19T09:02:24;52.80;17.10
34815;DHT22;21030;53.912;15.214;2022-07-19T09:05:02;52.80;17.40
34815;DHT22;21030;53.912;15.214;2022-07-19T09:07:32;52.30;17.10
34815;DHT22;21030;53.912;15.214;2022-07-19T09:10:21;52.00;17.70
34815;DHT22;21030;53.912;15.214;2022-07-19T09:13:02;51.90;17.50
34815;DHT22;21030;53.912;15.214;2022-07-19T09:15:49;52.00;17.30
34815;DHT22;21030;53.912;15.214;2022-07-19T09:18:23;51.70;17.50
34815;DHT22;21030;53.912;15.214;2022-07-19T09:20:56;52.30;17.70
34815;DHT22;21030;53.912;15.214;2022-07-19T09:23:23;51.90;17.50
34815;DHT22;21030;53.912;15.214;2022-07-19T09:25:52;51.90;17.70
34815;DHT22;21030;53.912;15.214;2022-07-19T09:28:21;51.10;18.40
34815;DHT22;21030;53.912;15.214;2022-07-19T09:30:50;50.60;18.60
34815;DHT22;21030;53.912;15.214;2022-07-19T09:33:35;50.20;18.60
34815;DHT22;21030;53.912;15.214;2022-07-19T09:36:11;50.40;18.10
34815;DHT22;21030;53.912;15.214;2022-07-19T09:38:38;50.60;18.60
34815;DHT22;21030;53.912;15.214;2022-07-19T09:41:18;50.90;18.60
34815;DHT22;21030;53.912;15.214;2022-07-19T09:43:52;51.20;18.30
34815;DHT22;21030;53.912;15.214;2022-07-19T09:51:38;50.50;17.80
34815;DHT22;21030;53.912;15.214;2022-07-19T09:54:08;50.00;17.70
34815;DHT22;21030;53.912;15.214;2022-07-19T09:56:37;49.80;18.20
34815;DHT22;21030;53.912;15.214;2022-07-19T09:59:05;50.10;18.10
34815;DHT22;21030;53.912;15.214;2022-07-19T10:01:33;50.60;17.90
34815;DHT22;21030;53.912;15.214;2022-07-19T10:04:13;50.70;18.10
34815;DHT22;21030;53.912;15.214;2022-07-19T10:06:41;50.90;17.40
34815;DHT22;21030;53.912;15.214;2022-07-19T10:09:12;50.70;17.00
34815;DHT22;21030;53.912;15.214;2022-07-19T10:11:40;51.00;16.80
34815;DHT22;21030;53.912;15.214;2022-07-19T10:14:08;51.90;17.00
34815;DHT22;21030;53.912;15.214;2022-07-19T10:22:04;51.90;16.40
34815;DHT22;21030;53.912;15.214;2022-07-19T10:24:48;51.70;16.10
34815;DHT22;21030;53.912;15.214;2022-07-19T10:32:46;50.20;16.00
34815;DHT22;21030;53.912;15.214;2022-07-19T10:38:06;49.50;17.10
34815;DHT22;21030;53.912;15.214;2022-07-19T10:40:46;49.10;17.60
34815;DHT22;21030;53.912;15.214;2022-07-19T10:48:42;48.80;18.10
34815;DHT22;21030;53.912;15.214;2022-07-19T10:51:33;49.20;18.10
34815;DHT22;21030;53.912;15.214;2022-07-19T10:54:04;49.40;17.90
34815;DHT22;21030;53.912;15.214;2022-07-19T10:56:35;49.40;17.90
34815;DHT22;21030;53.912;15.214;2022-07-19T10:59:29;49.80;17.80
34815;DHT22;21030;53.912;15.214;2022-07-19T11:01:57;50.50;17.70
34815;DHT22;21030;53.912;15.214;2022-07-19T11:04:48;51.10;17.10
34815;DHT22;21030;53.912;15.214;2022-07-19T11:07:18;51.80;16.80
34815;DHT22;21030;53.912;15.214;2022-07-19T11:09:54;52.10;16.50
34815;DHT22;21030;53.912;15.214;2022-07-19T11:12:35;52.50;16.40
34815;DHT22;21030;53.912;15.214;2022-07-19T11:15:08;53.00;16.30
34815;DHT22;21030;53.912;15.214;2022-07-19T11:18:01;53.40;15.80
34815;DHT22;21030;53.912;15.214;2022-07-19T11:20:37;53.70;15.80
34815;DHT22;21030;53.912;15.214;2022-07-19T11:23:06;54.00;15.60
34815;DHT22;21030;53.912;15.214;2022-07-19T11:25:37;54.00;15.70
34815;DHT22;21030;53.912;15.214;2022-07-19T11:28:30;53.70;15.80
34815;DHT22;21030;53.912;15.214;2022-07-19T11:30:58;53.40;15.60
34815;DHT22;21030;53.912;15.214;2022-07-19T11:33:25;53.90;15.80
34815;DHT22;21030;53.912;15.214;2022-07-19T11:36:00;53.60;15.70
34815;DHT22;21030;53.912;15.214;2022-07-19T11:38:38;52.90;15.50
34815;DHT22;21030;53.912;15.214;2022-07-19T11:41:36;53.10;16.20
34815;DHT22;21030;53.912;15.214;2022-07-19T11:44:07;53.20;16.00
34815;DHT22;21030;53.912;15.214;2022-07-19T11:46:38;52.80;15.80
34815;DHT22;21030;53.912;15.214;2022-07-19T11:49:07;51.60;16.20
34815;DHT22;21030;53.912;15.214;2022-07-19T11:51:34;51.70;16.30
34815;DHT22;21030;53.912;15.214;2022-07-19T11:54:05;51.70;17.10
34815;DHT22;21030;53.912;15.214;2022-07-19T11:56:34;51.50;16.60
34815;DHT22;21030;53.912;15.214;2022-07-19T11:59:04;51.90;17.10
34815;DHT22;21030;53.912;15.214;2022-07-19T12:01:35;52.70;16.60
34815;DHT22;21030;53.912;15.214;2022-07-19T12:04:10;52.40;16.00
34815;DHT22;21030;53.912;15.214;2022-07-19T12:06:43;53.10;16.10
34815;DHT22;21030;53.912;15.214;2022-07-19T12:09:12;53.10;16.10
34815;DHT22;21030;53.912;15.214;2022-07-19T12:11:42;53.50;15.90
34815;DHT22;21030;53.912;15.214;2022-07-19T12:14:36;53.70;15.40
34815;DHT22;21030;53.912;15.214;2022-07-19T12:17:18;54.20;15.30
34815;DHT22;21030;53.912;15.214;2022-07-19T12:19:47;54.50;15.00
34815;DHT22;21030;53.912;15.214;2022-07-19T12:25:02;53.30;15.60
34815;DHT22;21030;53.912;15.214;2022-07-19T12:27:30;53.60;15.50
34815;DHT22;21030;53.912;15.214;2022-07-19T12:29:58;53.10;15.00
34815;DHT22;21030;53.912;15.214;2022-07-19T12:35:09;53.30;15.70
34815;DHT22;21030;53.912;15.214;2022-07-19T12:37:46;53.40;15.60
34815;DHT22;21030;53.912;15.214;2022-07-19T12:40:21;53.70;15.70
34815;DHT22;21030;53.912;15.214;2022-07-19T12:42:54;53.80;15.50
34815;DHT22;21030;53.912;15.214;2022-07-19T12:45:38;53.90;15.30
34815;DHT22;21030;53.912;15.214;2022-07-19T12:48:07;54.00;15.40
34815;DHT22;21030;53.912;15.214;2022-07-19T12:50:40;54.30;15.20
34815;DHT22;21030;53.912;15.214;2022-07-19T12:53:11;53.90;14.90
34815;DHT22;21030;53.912;15.214;2022-07-19T12:55:39;53.80;15.20
34815;DHT22;21030;53.912;15.214;2022-07-19T12:58:07;53.80;15.30
34815;DHT22;21030;53.912;15.214;2022-07-19T13:00:36;54.00;15.10
34815;DHT22;21030;53.912;15.214;2022-07-19T13:03:05;53.80;15.10
34815;DHT22;21030;53.912;15.214;2022-07-19T13:05:33;53.80;15.00
34815;DHT22;21030;53.912;15.214;2022-07-19T13:08:01;54.00;14.90
34815;DHT22;21030;53.912;15.214;2022-07-19T13:10:29;53.80;14.70
34815;DHT22;21030;53.912;15.214;2022-07-19T13:12:57;53.80;14.70
34815;DHT22;21030;53.912;15.214;2022-07-19T13:15:24;53.90;14.70
34815;DHT22;21030;53.912;15.214;2022-07-19T13:17:51;53.80;14.50
34815;DHT22;21030;53.912;15.214;2022-07-19T13:20:26;54.00;14.70
34815;DHT22;21030;53.912;15.214;2022-07-19T13:22:54;53.90;14.80
34815;DHT22;21030;53.912;15.214;2022-07-19T13:25:21;54.10;15.10
34815;DHT22;21030;53.912;15.214;2022-07-19T13:28:08;53.90;15.40
34815;DHT22;21030;53.912;15.214;2022-07-19T13:30:35;53.80;15.30
34815;DHT22;21030;53.912;15.214;2022-07-19T13:33:03;53.70;15.50
34815;DHT22;21030;53.912;15.214;2022-07-19T13:35:33;53.80;15.60
34815;DHT22;21030;53.912;15.214;2022-07-19T13:38:00;53.70;15.40
34815;DHT22;21030;53.912;15.214;2022-07-19T13:40:27;53.80;15.40
34815;DHT22;21030;53.912;15.214;2022-07-19T13:42:54;53.70;15.20
34815;DHT22;21030;53.912;15.214;2022-07-19T13:45:22;53.60;15.30
34815;DHT22;21030;53.912;15.214;2022-07-19T13:47:50;53.50;14.90
34815;DHT22;21030;53.912;15.214;2022-07-19T13:50:25;53.50;14.80
34815;DHT22;21030;53.912;15.214;2022-07-19T13:52:53;53.40;14.80
34815;DHT22;21030;53.912;15.214;2022-07-19T13:55:20;53.50;15.00
34815;DHT22;21030;53.912;15.214;2022-07-19T13:57:48;53.50;15.10
34815;DHT22;21030;53.912;15.214;2022-07-19T14:00:15;53.20;14.80
34815;DHT22;21030;53.912;15.214;2022-07-19T14:02:44;53.20;15.20
34815;DHT22;21030;53.912;15.214;2022-07-19T14:05:13;53.30;14.90
34815;DHT22;21030;53.912;15.214;2022-07-19T14:07:40;53.40;14.70
34815;DHT22;21030;53.912;15.214;2022-07-19T14:10:09;53.10;14.50
34815;DHT22;21030;53.912;15.214;2022-07-19T14:12:36;53.20;14.90
34815;DHT22;21030;53.912;15.214;2022-07-19T14:15:04;53.20;14.40
34815;DHT22;21030;53.912;15.214;2022-07-19T14:17:32;53.20;14.90
34815;DHT22;21030;53.912;15.214;2022-07-19T14:19:59;53.00;14.80
34815;DHT22;21030;53.912;15.214;2022-07-19T14:22:26;52.90;14.60
34815;DHT22;21030;53.912;15.214;2022-07-19T14:24:53;52.90;14.30
34815;DHT22;21030;53.912;15.214;2022-07-19T14:27:20;53.10;14.50
34815;DHT22;21030;53.912;15.214;2022-07-19T14:29:47;53.20;14.90
34815;DHT22;21030;53.912;15.214;2022-07-19T14:32:14;52.90;14.50
34815;DHT22;21030;53.912;15.214;2022-07-19T14:34:42;52.70;14.50
34815;DHT22;21030;53.912;15.214;2022-07-19T14:37:09;52.80;14.80
34815;DHT22;21030;53.912;15.214;2022-07-19T14:39:36;52.70;15.00
34815;DHT22;21030;53.912;15.214;2022-07-19T14:42:03;52.40;14.80
34815;DHT22;21030;53.912;15.214;2022-07-19T14:44:31;52.60;14.80
34815;DHT22;21030;53.912;15.214;2022-07-19T14:46:59;52.60;14.70
34815;DHT22;21030;53.912;15.214;2022-07-19T14:49:26;52.60;14.70
34815;DHT22;21030;53.912;15.214;2022-07-19T14:51:53;52.40;14.30
34815;DHT22;21030;53.912;15.214;2022-07-19T14:54:20;52.30;14.20
34815;DHT22;21030;53.912;15.214;2022-07-19T14:56:51;52.30;14.60
34815;DHT22;21030;53.912;15.214;2022-07-19T14:59:19;52.20;14.60
34815;DHT22;21030;53.912;15.214;2022-07-19T15:01:46;52.00;14.30
34815;DHT22;21030;53.912;15.214;2022-07-19T15:04:14;51.80;14.50
34815;DHT22;21030;53.912;15.214;2022-07-19T15:06:42;51.70;14.40
34815;DHT22;21030;53.912;15.214;2022-07-19T15:09:09;51.70;14.60
34815;DHT22;21030;53.912;15.214;2022-07-19T15:11:39;51.50;14.40
34815;DHT22;21030;53.912;15.214;2022-07-19T15:14:07;51.50;14.70
34815;DHT22;21030;53.912;15.214;2022-07-19T15:16:34;51.20;14.60
34815;DHT22;21030;53.912;15.214;2022-07-19T15:19:02;51.00;14.80
34815;DHT22;21030;53.912;15.214;2022-07-19T15:21:29;50.80;14.90
34815;DHT22;21030;53.912;15.214;2022-07-19T15:23:57;50.50;15.10
34815;DHT22;21030;53.912;15.214;2022-07-19T15:26:27;50.40;15.40
34815;DHT22;21030;53.912;15.214;2022-07-19T15:28:55;49.80;15.20
34815;DHT22;21030;53.912;15.214;2022-07-19T15:31:23;49.70;15.80
34815;DHT22;21030;53.912;15.214;2022-07-19T15:33:50;49.50;15.70
34815;DHT22;21030;53.912;15.214;2022-07-19T15:36:18;49.20;15.60
34815;DHT22;21030;53.912;15.214;2022-07-19T15:38:45;49.00;16.00
34815;DHT22;21030;53.912;15.214;2022-07-19T15:41:14;48.70;16.10
34815;DHT22;21030;53.912;15.214;2022-07-19T15:43:53;48.50;16.40
34815;DHT22;21030;53.912;15.214;2022-07-19T15:46:20;48.60;16.30
34815;DHT22;21030;53.912;15.214;2022-07-19T15:48:48;48.50;16.30
34815;DHT22;21030;53.912;15.214;2022-07-19T15:51:15;48.40;16.60
34815;DHT22;21030;53.912;15.214;2022-07-19T15:53:43;48.10;16.70
34815;DHT22;21030;53.912;15.214;2022-07-19T15:56:11;48.10;17.00